Main page
METAR-TAF:

METAR-TAF

Airports :

Blackpool, England

Blackpool Airport

latitude: 53-46N, longitude: 003-02W, elevation: 10 m

Current weather observation

The report was made 4 hours and 26 minutes ago, at 19:50 UTC
Wind 6 kt from the South
Temperature 12°C
Humidity 88%
Pressure 1019 hPa
Visibility 10 km or more
Few clouds at a height of 4000 ft

METAR: EGNH 191950Z 19006KT 9999 FEW040 12/10 Q1019

Time: 01:16 (00:16 UTC)

Forecast

The report was made 7 hours and 14 minutes ago, at 17:02 UTC
Forecast valid from 19 at 18 UTC to 19 at 20 UTC
Wind 4 kt from the South/Southwest
Visibility 10 km or more
Few clouds at a height of 3000 ft

TAF: EGNH 191702Z 1918/1920 20004KT 9999 FEW030

Weather observations and forecasts of more than 4000 airports (METAR and TAF reports).

The available stations are represented by yellow and red dots on the map.

Hover mouse over dot to see the name of the station.

Then click to see weather observations and forecasts.

To change the map : click on the green buttons with a black cross to zoom in, on the green button with a dash to zoom out, or on the green arrows for adjacent maps.


METAR-TAF: